Time;durP1;ratioP1;P1;durP2;ratioP2;P2;SDS_P1;SDS_P2;PMS_P1;PMS_P2;Temp;Humidity;BMP_temperature;BMP_pressure;BME280_temperature;BME280_humidity;BME280_pressure;Samples;Min_cycle;Max_cycle;Signal;HPM_P1;HPM_P2
2022/05/05 00:01:37;;;;;;;7.53;6.83;;;12.00;38.00;;;;;;5055829;28;20413;-69
2022/05/05 00:04:03;;;;;;;5.53;5.03;;;12.10;38.00;;;;;;5054180;28;20920;-70
2022/05/05 00:06:29;;;;;;;5.50;5.00;;;12.00;37.90;;;;;;5057436;28;20194;-74
2022/05/05 00:08:55;;;;;;;5.70;5.20;;;12.00;37.90;;;;;;5061535;28;20469;-74
2022/05/05 00:14:24;;;;;;;6.87;6.20;;;12.00;37.60;;;;;;5064363;28;20422;-71
2022/05/05 00:16:51;;;;;;;7.70;5.60;;;12.00;37.10;;;;;;5065198;28;20464;-70
2022/05/05 00:19:16;;;;;;;6.53;5.77;;;12.00;36.90;;;;;;5066380;28;20778;-73
2022/05/05 00:21:42;;;;;;;6.30;5.70;;;12.10;36.60;;;;;;5065080;28;20416;-72
2022/05/05 00:24:08;;;;;;;5.90;5.27;;;11.90;36.70;;;;;;5066661;28;20166;-74
2022/05/05 00:26:34;;;;;;;6.87;6.17;;;11.90;37.20;;;;;;5066579;28;20226;-72
2022/05/05 00:29:00;;;;;;;9.40;6.07;;;11.90;37.50;;;;;;5064233;28;20525;-73
2022/05/05 00:31:26;;;;;;;5.53;5.03;;;11.90;37.90;;;;;;5060990;28;20178;-70
2022/05/05 00:33:51;;;;;;;6.80;6.10;;;11.90;37.90;;;;;;5057337;28;20234;-70
2022/05/05 00:36:17;;;;;;;6.57;5.87;;;11.90;37.90;;;;;;5059725;28;20471;-70
2022/05/05 00:38:43;;;;;;;7.83;6.63;;;12.00;37.00;;;;;;5060862;28;20174;-70
2022/05/05 00:41:08;;;;;;;6.50;5.90;;;11.90;36.60;;;;;;5053445;28;20177;-70
2022/05/05 00:43:35;;;;;;;6.60;5.67;;;11.90;36.30;;;;;;5052281;28;20226;-69
2022/05/05 00:46:01;;;;;;;8.73;6.30;;;11.90;36.00;;;;;;5052086;28;20206;-69
2022/05/05 00:48:27;;;;;;;13.33;6.20;;;11.90;36.40;;;;;;5051797;28;20523;-69
2022/05/05 00:50:54;;;;;;;5.67;5.07;;;12.00;36.00;;;;;;5052037;28;20452;-69
2022/05/05 00:53:20;;;;;;;6.63;6.00;;;12.00;36.00;;;;;;5052051;28;20409;-70
2022/05/05 00:55:46;;;;;;;7.20;6.60;;;11.90;36.20;;;;;;5051830;28;20567;-69
2022/05/05 00:58:13;;;;;;;6.03;5.53;;;12.00;36.20;;;;;;5051765;28;20426;-69
2022/05/05 01:00:39;;;;;;;7.60;6.53;;;11.80;36.60;;;;;;5052008;28;20497;-69
2022/05/05 01:03:09;;;;;;;10.43;7.37;;;11.80;36.20;;;;;;5051905;28;20808;-70
2022/05/05 01:05:37;;;;;;;5.90;5.23;;;11.80;36.30;;;;;;5051840;28;20441;-69
2022/05/05 01:08:04;;;;;;;4.93;4.50;;;11.80;35.90;;;;;;5051582;28;20421;-69
2022/05/05 01:10:30;;;;;;;6.53;5.93;;;11.80;35.50;;;;;;5054070;28;20474;-69
2022/05/05 01:12:55;;;;;;;6.10;5.53;;;11.80;35.80;;;;;;5052490;28;20897;-69
2022/05/05 01:15:22;;;;;;;5.70;5.30;;;11.80;35.70;;;;;;5054507;28;20574;-69
2022/05/05 01:17:48;;;;;;;6.47;5.10;;;11.80;36.00;;;;;;5051814;28;20172;-69
2022/05/05 01:20:15;;;;;;;6.03;5.37;;;11.70;36.20;;;;;;5051582;28;20989;-69
2022/05/05 01:22:41;;;;;;;8.03;5.47;;;11.80;36.10;;;;;;5052040;28;20171;-69
2022/05/05 01:30:35;;;;;;;6.57;5.93;;;11.80;36.20;;;;;;5051603;28;20416;-70
2022/05/05 01:33:01;;;;;;;7.10;5.70;;;11.70;36.50;;;;;;5051618;28;20405;-69
2022/05/05 01:35:26;;;;;;;6.63;5.93;;;11.70;36.40;;;;;;5051327;28;20201;-68
2022/05/05 01:37:52;;;;;;;6.17;5.57;;;11.70;37.00;;;;;;5051142;28;20179;-69
2022/05/05 01:40:17;;;;;;;8.47;6.57;;;11.80;36.80;;;;;;5051458;28;20218;-69
2022/05/05 01:42:43;;;;;;;6.83;5.93;;;11.80;36.60;;;;;;5051426;28;20603;-69
2022/05/05 01:45:09;;;;;;;5.80;5.20;;;11.80;37.00;;;;;;5051406;28;20254;-69
2022/05/05 01:47:36;;;;;;;5.97;5.47;;;11.80;37.10;;;;;;5054265;28;20424;-69
2022/05/05 01:50:02;;;;;;;10.90;5.70;;;11.80;37.40;;;;;;5055067;28;20879;-69
2022/05/05 01:52:28;;;;;;;5.60;5.10;;;11.70;37.00;;;;;;5055204;28;20416;-69
2022/05/05 01:54:53;;;;;;;5.70;5.07;;;11.70;37.10;;;;;;5055271;28;20940;-69
2022/05/05 01:57:19;;;;;;;4.73;4.37;;;11.80;36.90;;;;;;5054914;28;20198;-69
2022/05/05 01:59:44;;;;;;;5.47;4.97;;;11.80;37.00;;;;;;5055150;28;20201;-69
2022/05/05 02:02:10;;;;;;;6.03;5.43;;;11.70;37.00;;;;;;5055008;28;20184;-69
2022/05/05 02:04:35;;;;;;;6.27;5.77;;;11.80;37.10;;;;;;5054971;28;20186;-69
2022/05/05 02:07:01;;;;;;;5.60;5.10;;;11.80;36.90;;;;;;5054944;28;20664;-69
2022/05/05 02:09:26;;;;;;;6.03;5.53;;;11.80;36.80;;;;;;5054770;28;20210;-69
2022/05/05 02:11:53;;;;;;;5.70;5.10;;;11.80;37.00;;;;;;5053642;28;20261;-69
2022/05/05 02:14:23;;;;;;;6.17;5.50;;;11.80;36.70;;;;;;5054905;28;20170;-70
2022/05/05 02:16:50;;;;;;;5.90;5.17;;;11.70;36.90;;;;;;5054595;28;20455;-70
2022/05/05 02:19:15;;;;;;;6.77;6.00;;;11.70;37.00;;;;;;5054503;28;20541;-68
2022/05/05 02:21:41;;;;;;;5.20;4.70;;;11.70;37.40;;;;;;5054630;28;20846;-69
2022/05/05 02:24:07;;;;;;;6.23;5.17;;;11.70;37.00;;;;;;5053348;28;20185;-69
2022/05/05 02:26:32;;;;;;;5.90;5.17;;;11.70;37.70;;;;;;5054529;28;20198;-69
2022/05/05 02:28:58;;;;;;;5.90;5.30;;;11.70;37.00;;;;;;5054303;28;20233;-69
2022/05/05 02:31:23;;;;;;;8.83;5.97;;;11.70;37.00;;;;;;5054568;28;20186;-69
2022/05/05 02:33:49;;;;;;;5.70;5.20;;;11.60;37.20;;;;;;5053143;28;20573;-70
2022/05/05 02:38:59;;;;;;;5.53;5.03;;;11.60;37.60;;;;;;5054131;28;20227;-69
2022/05/05 02:41:24;;;;;;;6.07;5.47;;;11.50;37.60;;;;;;5053055;28;20429;-69
2022/05/05 02:43:50;;;;;;;7.70;5.47;;;11.40;38.30;;;;;;5054203;28;20181;-69
2022/05/05 02:46:15;;;;;;;5.93;5.07;;;11.20;38.80;;;;;;5054599;28;20193;-69
2022/05/05 02:48:41;;;;;;;4.87;4.40;;;11.20;38.70;;;;;;5052597;28;20209;-69
2022/05/05 02:51:07;;;;;;;5.90;4.90;;;11.20;38.80;;;;;;5054286;28;20174;-69
2022/05/05 02:56:17;;;;;;;6.50;4.70;;;11.00;40.20;;;;;;5053940;28;20477;-71
2022/05/05 02:58:42;;;;;;;6.40;4.87;;;11.00;40.20;;;;;;5052058;28;20503;-70
2022/05/05 03:01:08;;;;;;;6.20;5.50;;;11.00;39.70;;;;;;5053803;28;20200;-70
2022/05/05 03:03:34;;;;;;;6.73;5.93;;;11.00;39.90;;;;;;5053794;28;20173;-69
2022/05/05 03:06:00;;;;;;;6.37;5.77;;;11.00;39.80;;;;;;5052437;28;20433;-69
2022/05/05 03:08:26;;;;;;;6.70;4.70;;;10.90;40.20;;;;;;5053429;28;20771;-69
2022/05/05 03:10:51;;;;;;;6.77;5.70;;;10.90;40.40;;;;;;5052369;28;20561;-69
2022/05/05 03:13:17;;;;;;;5.03;4.60;;;10.90;40.30;;;;;;5052405;28;20174;-68
2022/05/05 03:15:43;;;;;;;6.27;5.67;;;10.90;40.30;;;;;;5053492;28;20702;-69
2022/05/05 03:18:09;;;;;;;11.30;6.47;;;10.90;40.40;;;;;;5053391;28;20307;-69
2022/05/05 03:20:34;;;;;;;7.20;6.50;;;10.90;39.90;;;;;;5053546;28;20455;-69
2022/05/05 03:23:00;;;;;;;8.93;6.27;;;10.90;40.50;;;;;;5053650;28;20175;-69
2022/05/05 03:25:25;;;;;;;6.00;5.50;;;11.00;40.20;;;;;;5053625;28;20197;-68
2022/05/05 03:27:51;;;;;;;7.43;5.33;;;11.00;40.30;;;;;;5053006;28;20176;-68
2022/05/05 03:30:16;;;;;;;8.60;5.93;;;11.00;40.00;;;;;;5053956;28;20213;-68
2022/05/05 03:32:42;;;;;;;6.33;5.73;;;11.00;40.40;;;;;;5051866;28;20226;-68
2022/05/05 03:35:08;;;;;;;15.53;6.33;;;11.00;40.20;;;;;;5052979;28;20176;-68
2022/05/05 03:37:34;;;;;;;5.80;5.10;;;11.00;40.30;;;;;;5052920;28;20177;-68
2022/05/05 03:39:59;;;;;;;5.87;5.10;;;11.00;40.00;;;;;;5051800;28;20418;-68
2022/05/05 03:42:25;;;;;;;6.93;5.87;;;11.00;40.40;;;;;;5053025;28;20177;-68
2022/05/05 03:44:51;;;;;;;6.83;6.03;;;11.10;40.00;;;;;;5052838;28;20174;-68
2022/05/05 03:47:17;;;;;;;6.20;5.50;;;11.10;40.00;;;;;;5052586;28;20434;-69
2022/05/05 03:49:42;;;;;;;5.80;4.73;;;11.10;40.40;;;;;;5052693;28;20200;-69
2022/05/05 03:52:08;;;;;;;5.97;5.47;;;11.10;40.00;;;;;;5052875;28;20203;-68
2022/05/05 03:54:34;;;;;;;6.47;5.67;;;10.90;40.60;;;;;;5051475;28;20646;-69
2022/05/05 03:56:59;;;;;;;4.83;4.40;;;10.80;41.80;;;;;;5052644;28;20277;-69
2022/05/05 03:59:25;;;;;;;5.30;4.70;;;10.80;42.00;;;;;;5052292;28;20792;-69
2022/05/05 04:01:50;;;;;;;6.97;6.27;;;10.80;42.00;;;;;;5052431;28;20705;-69
2022/05/05 04:04:17;;;;;;;5.27;4.70;;;10.70;41.90;;;;;;5052767;28;20601;-70
2022/05/05 04:06:43;;;;;;;8.83;6.20;;;10.80;42.00;;;;;;5052437;28;20244;-70
2022/05/05 04:09:10;;;;;;;6.10;4.90;;;11.00;42.20;;;;;;5051489;28;20483;-69
2022/05/05 04:11:36;;;;;;;6.40;5.20;;;11.10;41.60;;;;;;5052415;28;20168;-69
2022/05/05 04:14:03;;;;;;;6.20;5.13;;;11.30;40.40;;;;;;5052149;28;20515;-69
2022/05/05 04:16:32;;;;;;;7.63;5.37;;;11.40;39.60;;;;;;5083891;22;20502;-66
2022/05/05 04:18:58;;;;;;;6.80;5.10;;;11.40;39.70;;;;;;5072848;28;20887;-68
2022/05/05 04:21:25;;;;;;;7.00;6.00;;;11.50;39.00;;;;;;5072748;28;20412;-70
2022/05/05 04:23:51;;;;;;;16.57;6.00;;;11.60;39.10;;;;;;5072572;28;20404;-70
2022/05/05 04:26:17;;;;;;;8.93;6.53;;;11.70;38.50;;;;;;5072418;28;20467;-70
2022/05/05 04:28:46;;;;;;;7.30;5.00;;;11.70;38.20;;;;;;5072350;28;20502;-70
2022/05/05 04:31:14;;;;;;;5.47;4.93;;;11.80;37.80;;;;;;5072548;28;20412;-70
2022/05/05 04:33:40;;;;;;;6.53;5.83;;;11.90;37.90;;;;;;5072973;28;20775;-71
2022/05/05 04:36:07;;;;;;;6.70;5.10;;;11.90;37.90;;;;;;5072350;28;20424;-70
2022/05/05 04:38:34;;;;;;;5.13;4.63;;;12.00;37.90;;;;;;5071170;28;20511;-70
2022/05/05 04:40:59;;;;;;;5.83;5.33;;;12.10;38.00;;;;;;5072447;28;20512;-70
2022/05/05 04:43:25;;;;;;;5.87;5.17;;;12.20;37.30;;;;;;5072495;28;20944;-70
2022/05/05 04:45:50;;;;;;;8.17;4.90;;;12.30;36.80;;;;;;5070915;28;20185;-71
2022/05/05 04:48:16;;;;;;;5.40;4.90;;;12.40;36.10;;;;;;5072135;28;20194;-70
2022/05/05 04:50:41;;;;;;;7.60;4.80;;;12.50;35.60;;;;;;5072528;28;20186;-70
2022/05/05 04:53:07;;;;;;;7.53;5.40;;;12.50;34.80;;;;;;5070632;28;20210;-70
2022/05/05 04:55:32;;;;;;;5.30;4.80;;;12.60;34.70;;;;;;5071905;28;20574;-70
2022/05/05 04:57:58;;;;;;;6.60;6.00;;;12.70;34.50;;;;;;5071901;28;20174;-70
2022/05/05 05:00:24;;;;;;;5.70;5.10;;;12.70;34.20;;;;;;5072376;28;20180;-70
2022/05/05 05:02:50;;;;;;;6.80;6.20;;;12.80;33.40;;;;;;5070693;28;20511;-71
2022/05/05 05:05:16;;;;;;;6.20;5.60;;;12.90;33.50;;;;;;5072783;28;20437;-71
2022/05/05 05:07:41;;;;;;;6.63;5.37;;;13.00;33.60;;;;;;5072155;28;20198;-71
2022/05/05 05:10:07;;;;;;;6.00;5.50;;;13.10;33.70;;;;;;5071731;28;20476;-70
2022/05/05 05:12:33;;;;;;;5.47;5.07;;;13.30;33.90;;;;;;5070665;28;20180;-71
2022/05/05 05:14:59;;;;;;;6.60;6.00;;;13.60;33.40;;;;;;5071820;28;20827;-70
2022/05/05 05:17:24;;;;;;;6.77;6.07;;;13.80;31.60;;;;;;5070561;28;20215;-71
2022/05/05 05:19:50;;;;;;;7.33;6.73;;;13.90;30.00;;;;;;5071169;28;20179;-71
2022/05/05 05:22:15;;;;;;;6.77;6.27;;;14.00;29.80;;;;;;5076223;28;20187;-71
2022/05/05 05:24:41;;;;;;;6.40;5.87;;;14.20;29.90;;;;;;5074510;28;20197;-70
2022/05/05 05:27:07;;;;;;;7.20;6.70;;;14.40;29.70;;;;;;5075866;28;20288;-70
2022/05/05 05:29:32;;;;;;;7.70;7.10;;;14.50;29.00;;;;;;5075926;28;20478;-69
2022/05/05 05:31:58;;;;;;;6.57;6.13;;;14.60;29.10;;;;;;5076038;28;20500;-68
2022/05/05 05:34:23;;;;;;;7.27;6.53;;;14.80;28.60;;;;;;5075728;28;20169;-68
2022/05/05 05:36:49;;;;;;;7.97;7.23;;;14.90;28.20;;;;;;5075622;28;20194;-68
2022/05/05 05:39:16;;;;;;;8.87;8.07;;;15.00;27.40;;;;;;5075516;28;20188;-68
2022/05/05 05:41:42;;;;;;;9.37;8.43;;;15.00;26.50;;;;;;5075557;28;20416;-68
2022/05/05 05:44:07;;;;;;;9.90;8.87;;;15.00;26.70;;;;;;5075275;28;20420;-68
2022/05/05 05:46:33;;;;;;;8.47;7.77;;;14.80;26.60;;;;;;5074080;28;20252;-68
2022/05/05 05:48:58;;;;;;;10.00;8.90;;;14.80;27.10;;;;;;5073958;28;20245;-68
2022/05/05 05:51:24;;;;;;;8.13;7.43;;;14.70;26.90;;;;;;5075402;28;20557;-68
2022/05/05 05:53:50;;;;;;;7.87;7.07;;;14.60;27.20;;;;;;5074241;28;20545;-68
2022/05/05 05:56:16;;;;;;;8.27;7.40;;;14.30;28.60;;;;;;5074221;28;20444;-68
2022/05/05 05:58:41;;;;;;;7.80;7.07;;;14.20;28.30;;;;;;5075270;28;20174;-68
2022/05/05 06:01:07;;;;;;;20.37;8.70;;;13.70;29.30;;;;;;5075359;28;20642;-68
2022/05/05 06:06:17;;;;;;;7.20;6.60;;;13.70;30.70;;;;;;5075720;28;20302;-68
2022/05/05 06:08:44;;;;;;;9.10;7.90;;;14.20;29.90;;;;;;5073683;28;20541;-68
2022/05/05 06:11:11;;;;;;;13.33;9.80;;;14.50;29.90;;;;;;5075215;28;20177;-68
2022/05/05 06:13:37;;;;;;;7.90;6.67;;;14.60;29.30;;;;;;5075275;28;20412;-68
2022/05/05 06:16:04;;;;;;;7.83;7.23;;;14.80;28.80;;;;;;5075210;28;20888;-68
2022/05/05 06:18:30;;;;;;;9.20;8.50;;;15.10;27.80;;;;;;5074865;28;20437;-68
2022/05/05 06:20:55;;;;;;;8.60;7.87;;;15.10;27.10;;;;;;5073966;28;20439;-69
2022/05/05 06:23:21;;;;;;;8.90;8.30;;;15.10;27.30;;;;;;5073563;28;20177;-69
2022/05/05 06:25:46;;;;;;;9.73;8.83;;;15.30;27.00;;;;;;5074765;28;20195;-69
2022/05/05 06:28:12;;;;;;;11.20;10.10;;;15.30;26.20;;;;;;5076118;28;20176;-69
2022/05/05 06:30:38;;;;;;;11.27;10.23;;;15.40;26.30;;;;;;5074891;28;20230;-69
2022/05/05 06:33:03;;;;;;;11.37;10.40;;;15.40;26.30;;;;;;5073913;28;20173;-68
2022/05/05 06:35:29;;;;;;;9.97;9.07;;;15.30;26.20;;;;;;5073238;28;20540;-67
2022/05/05 06:37:54;;;;;;;9.53;8.37;;;15.40;26.30;;;;;;5074476;28;20229;-68
2022/05/05 06:40:20;;;;;;;8.90;7.97;;;15.20;26.50;;;;;;5073447;28;20310;-68
2022/05/05 06:42:48;;;;;;;9.60;8.93;;;15.20;26.40;;;;;;5076428;28;20203;-69
2022/05/05 06:45:14;;;;;;;8.83;8.03;;;14.90;26.70;;;;;;5075442;28;20419;-68
2022/05/05 06:47:40;;;;;;;9.53;8.73;;;14.80;27.20;;;;;;5064330;28;20490;-68
2022/05/05 06:50:07;;;;;;;9.50;8.60;;;14.70;28.20;;;;;;5068037;28;20492;-68
2022/05/05 06:52:32;;;;;;;9.57;8.77;;;14.80;28.30;;;;;;5074168;28;20966;-69
2022/05/05 06:54:58;;;;;;;8.97;8.20;;;14.90;28.20;;;;;;5056649;28;20456;-68
2022/05/05 06:57:23;;;;;;;14.27;8.70;;;15.10;28.10;;;;;;5069011;28;20212;-67
2022/05/05 06:59:49;;;;;;;10.10;9.10;;;15.10;28.00;;;;;;5074307;28;20182;-69
2022/05/05 07:02:14;;;;;;;8.73;8.03;;;15.10;27.40;;;;;;5077050;28;20191;-68
2022/05/05 07:07:24;;;;;;;9.17;8.27;;;15.20;27.50;;;;;;5056632;28;20267;-70
2022/05/05 07:12:34;;;;;;;10.07;9.27;;;15.50;26.40;;;;;;5056315;28;20365;-69
2022/05/05 07:15:00;;;;;;;9.77;9.07;;;15.50;26.00;;;;;;5065816;28;20424;-69
2022/05/05 07:17:26;;;;;;;36.07;10.33;;;15.30;26.30;;;;;;5074311;28;20217;-68
2022/05/05 07:19:53;;;;;;;9.80;9.00;;;15.40;26.30;;;;;;5074690;28;20415;-69
2022/05/05 07:22:19;;;;;;;9.33;8.53;;;15.50;26.40;;;;;;5074065;28;20213;-68
2022/05/05 07:24:45;;;;;;;15.93;9.93;;;15.70;26.10;;;;;;5074351;28;20442;-70
2022/05/05 07:27:10;;;;;;;10.77;9.73;;;15.80;26.10;;;;;;5075017;28;20432;-69
2022/05/05 07:29:37;;;;;;;9.93;9.03;;;15.80;25.20;;;;;;5074673;28;20536;-69
2022/05/05 07:32:03;;;;;;;11.63;10.67;;;15.90;25.50;;;;;;5074134;28;20631;-69
2022/05/05 07:34:29;;;;;;;9.20;8.30;;;15.80;24.30;;;;;;5073089;28;20576;-70
2022/05/05 07:36:55;;;;;;;9.90;8.93;;;15.00;26.00;;;;;;5074231;28;20587;-69
2022/05/05 07:39:20;;;;;;;11.33;10.00;;;14.80;27.20;;;;;;5072791;28;20177;-70
2022/05/05 07:41:46;;;;;;;10.50;9.60;;;15.10;27.70;;;;;;5073367;28;20196;-69
2022/05/05 07:44:11;;;;;;;9.83;8.93;;;15.30;26.80;;;;;;5073833;28;20190;-68
2022/05/05 07:46:37;;;;;;;12.13;11.17;;;15.20;26.70;;;;;;5073917;28;20202;-68
2022/05/05 07:49:04;;;;;;;11.97;10.93;;;15.30;26.70;;;;;;5073320;28;20190;-69
2022/05/05 07:51:31;;;;;;;10.70;9.60;;;15.40;27.00;;;;;;5073687;28;20444;-69
2022/05/05 07:56:43;;;;;;;9.20;8.40;;;14.80;26.60;;;;;;5053651;28;20475;-68
2022/05/05 07:59:09;;;;;;;11.17;10.23;;;14.50;25.70;;;;;;5052656;28;20434;-69
2022/05/05 08:01:34;;;;;;;9.93;9.10;;;14.70;27.10;;;;;;5053466;28;20447;-68
2022/05/05 08:04:00;;;;;;;9.53;8.63;;;14.60;26.40;;;;;;5072626;28;20474;-68
2022/05/05 08:06:26;;;;;;;9.00;8.20;;;14.50;26.60;;;;;;5074002;28;20197;-69
2022/05/05 08:08:51;;;;;;;9.37;8.20;;;14.50;27.60;;;;;;5072543;28;20623;-69
2022/05/05 08:11:17;;;;;;;9.73;8.83;;;14.80;27.00;;;;;;5074119;28;20257;-69
2022/05/05 08:13:43;;;;;;;9.77;8.93;;;14.70;25.90;;;;;;5073692;28;20218;-69
2022/05/05 08:16:08;;;;;;;8.97;8.17;;;14.90;25.90;;;;;;5072192;28;20218;-69
2022/05/05 08:18:38;;;;;;;10.53;8.70;;;15.00;26.00;;;;;;5073359;28;20266;-69
2022/05/05 08:21:04;;;;;;;7.87;7.33;;;14.70;25.80;;;;;;5072732;28;20170;-69
2022/05/05 08:23:30;;;;;;;9.93;8.20;;;14.70;26.50;;;;;;5073867;28;20912;-69
2022/05/05 08:28:40;;;;;;;9.00;8.30;;;15.10;26.60;;;;;;5078456;28;20607;-70
2022/05/05 08:31:06;;;;;;;11.67;10.80;;;15.20;25.00;;;;;;5077565;28;20777;-69
2022/05/05 08:33:31;;;;;;;10.97;10.00;;;15.20;24.80;;;;;;5073744;28;20408;-69
2022/05/05 08:35:58;;;;;;;11.97;10.97;;;14.80;25.90;;;;;;5072157;28;20216;-69
2022/05/05 08:38:24;;;;;;;10.67;9.63;;;15.00;25.60;;;;;;5067912;28;20187;-69
2022/05/05 08:40:50;;;;;;;10.10;9.20;;;14.80;25.90;;;;;;5068335;28;20437;-70
2022/05/05 08:43:16;;;;;;;11.50;10.40;;;15.00;25.60;;;;;;5068354;28;20432;-68
2022/05/05 08:45:42;;;;;;;9.53;8.83;;;14.60;26.30;;;;;;5068543;28;20424;-68
2022/05/05 08:48:11;;;;;;;12.13;10.50;;;14.70;26.10;;;;;;5054816;28;20433;-69
2022/05/05 08:50:38;;;;;;;11.53;10.47;;;14.70;25.90;;;;;;5047697;28;20463;-69
2022/05/05 08:53:05;;;;;;;10.13;9.13;;;14.50;26.50;;;;;;5068349;28;20505;-68
2022/05/05 08:55:32;;;;;;;9.23;8.47;;;14.40;27.40;;;;;;5067737;28;20411;-69
2022/05/05 08:57:59;;;;;;;10.40;9.50;;;14.30;27.60;;;;;;5050819;28;20449;-69
2022/05/05 09:00:27;;;;;;;10.90;10.00;;;14.10;28.70;;;;;;5068130;28;20445;-69
2022/05/05 09:02:58;;;;;;;10.13;9.23;;;14.10;28.50;;;;;;5068496;28;20420;-69
2022/05/05 09:05:42;;;;;;;10.30;9.30;;;14.20;29.00;;;;;;5067735;28;20638;-68
2022/05/05 09:08:25;;;;;;;10.60;9.60;;;14.40;28.20;;;;;;5066926;28;20521;-69
2022/05/05 09:10:52;;;;;;;11.33;10.13;;;14.50;28.30;;;;;;5068029;28;20478;-68
2022/05/05 09:13:22;;;;;;;12.67;11.47;;;14.40;28.90;;;;;;5068301;28;20438;-68
2022/05/05 09:15:48;;;;;;;10.03;9.17;;;14.40;28.80;;;;;;5067482;28;20484;-69
2022/05/05 09:18:18;;;;;;;10.50;9.43;;;14.40;28.30;;;;;;5067201;28;20422;-68
2022/05/05 09:20:45;;;;;;;10.30;9.30;;;14.20;29.70;;;;;;5061281;28;20269;-68
2022/05/05 09:23:29;;;;;;;10.67;9.77;;;14.60;28.90;;;;;;5046745;28;20501;-69
2022/05/05 09:25:55;;;;;;;10.73;9.83;;;14.60;28.90;;;;;;5048201;28;20447;-68
2022/05/05 09:28:23;;;;;;;10.47;9.47;;;14.60;28.30;;;;;;5056465;28;20531;-69
2022/05/05 09:30:49;;;;;;;11.40;10.40;;;14.50;28.50;;;;;;5067397;28;20474;-69
2022/05/05 09:33:34;;;;;;;10.10;9.20;;;14.60;28.70;;;;;;5070299;28;20509;-69
2022/05/05 09:36:22;;;;;;;11.00;10.10;;;14.60;28.50;;;;;;5071315;28;20427;-69
2022/05/05 09:38:48;;;;;;;17.63;10.00;;;14.90;28.30;;;;;;5071041;28;20431;-69
2022/05/05 09:41:13;;;;;;;11.80;10.60;;;15.30;27.50;;;;;;5069776;28;20424;-69
2022/05/05 09:43:39;;;;;;;12.27;11.17;;;15.60;26.50;;;;;;5071294;28;20178;-68
2022/05/05 09:46:23;;;;;;;13.07;11.90;;;15.60;26.40;;;;;;5062384;28;20291;-69
2022/05/05 09:48:49;;;;;;;13.10;10.50;;;15.30;26.20;;;;;;5052102;28;20201;-71
2022/05/05 09:51:15;;;;;;;11.63;10.63;;;15.20;27.60;;;;;;5052288;28;20421;-72
2022/05/05 09:59:17;;;;;;;12.43;10.87;;;15.20;27.30;;;;;;5070918;28;20792;-69
2022/05/05 10:01:46;;;;;;;11.40;10.40;;;14.70;27.90;;;;;;5070882;28;20561;-69
2022/05/05 10:04:14;;;;;;;9.93;8.87;;;14.30;29.70;;;;;;5070966;28;20427;-69
2022/05/05 10:06:44;;;;;;;12.23;11.17;;;14.50;29.90;;;;;;5072284;28;20438;-69
2022/05/05 10:09:12;;;;;;;10.57;9.70;;;14.30;30.30;;;;;;5075223;28;20461;-68
2022/05/05 10:11:38;;;;;;;13.63;9.43;;;14.60;30.10;;;;;;5076661;28;20947;-70
2022/05/05 10:14:05;;;;;;;11.57;10.30;;;14.00;33.20;;;;;;5075861;28;20419;-69
2022/05/05 10:16:31;;;;;;;9.50;8.60;;;14.30;33.50;;;;;;5075764;28;20546;-69
2022/05/05 10:18:58;;;;;;;15.43;10.70;;;14.00;33.80;;;;;;5062406;22;20937;-70
2022/05/05 10:21:59;;;;;;;11.07;9.07;;;14.10;31.70;;;;;;5034986;28;20207;-70
2022/05/05 10:24:50;;;;;;;11.90;9.67;;;14.50;32.60;;;;;;5034593;28;20511;-70
2022/05/05 10:27:16;;;;;;;10.57;9.67;;;15.00;31.30;;;;;;5033216;28;20530;-70
2022/05/05 10:29:43;;;;;;;11.80;10.27;;;14.90;30.00;;;;;;5033362;28;20471;-70
2022/05/05 10:32:18;;;;;;;12.20;10.87;;;14.40;31.40;;;;;;5034755;28;20775;-70
2022/05/05 10:34:45;;;;;;;12.10;10.80;;;14.70;32.60;;;;;;5034755;28;20420;-70
2022/05/05 10:37:18;;;;;;;13.27;9.63;;;14.90;32.00;;;;;;5032608;28;20461;-70
2022/05/05 10:39:47;;;;;;;10.37;9.60;;;15.20;29.30;;;;;;5034389;28;20417;-70
2022/05/05 10:42:15;;;;;;;12.00;10.97;;;15.90;30.90;;;;;;5034427;28;20919;-70
2022/05/05 10:45:04;;;;;;;12.53;11.37;;;16.10;27.80;;;;;;5034397;28;20422;-71
2022/05/05 10:48:01;;;;;;;15.13;13.63;;;16.90;28.10;;;;;;5034246;28;20422;-72
2022/05/05 10:50:30;;;;;;;12.50;11.47;;;16.50;25.40;;;;;;5034339;28;20465;-70
2022/05/05 10:52:58;;;;;;;11.90;10.70;;;16.50;26.30;;;;;;5034407;28;20781;-72
2022/05/05 10:55:42;;;;;;;16.30;14.83;;;16.90;27.90;;;;;;5033618;28;20426;-69
2022/05/05 10:58:10;;;;;;;14.47;13.37;;;17.20;25.00;;;;;;5033450;28;20532;-72
2022/05/05 11:00:40;;;;;;;16.17;14.50;;;17.40;24.50;;;;;;5033657;28;20783;-69
2022/05/05 11:03:11;;;;;;;15.53;14.10;;;17.10;23.30;;;;;;5033531;28;20422;-69
2022/05/05 11:05:37;;;;;;;14.83;13.33;;;16.50;25.50;;;;;;5028899;28;20461;-69
2022/05/05 11:08:09;;;;;;;16.57;15.17;;;16.70;25.50;;;;;;5021361;28;20806;-69
2022/05/05 11:10:46;;;;;;;15.83;14.53;;;17.10;24.00;;;;;;5028191;28;20453;-69
2022/05/05 11:13:35;;;;;;;15.53;14.23;;;17.70;23.60;;;;;;5033849;28;20500;-69
2022/05/05 11:22:19;;;;;;;16.53;15.00;;;18.60;22.40;;;;;;5023348;28;20418;-70
2022/05/05 11:24:46;;;;;;;17.00;15.50;;;18.20;20.20;;;;;;5013808;28;20992;-70
2022/05/05 11:27:17;;;;;;;18.53;16.60;;;16.80;23.90;;;;;;5012380;28;20965;-69
2022/05/05 11:29:54;;;;;;;16.37;14.83;;;17.70;22.00;;;;;;5014155;28;20477;-70
2022/05/05 11:32:27;;;;;;;16.80;15.53;;;17.20;23.20;;;;;;5012740;28;20465;-68
2022/05/05 11:34:52;;;;;;;18.40;16.70;;;18.00;22.80;;;;;;5013608;28;20419;-68
2022/05/05 11:37:18;;;;;;;19.40;17.60;;;18.10;22.60;;;;;;5013438;28;20509;-68
2022/05/05 11:39:47;;;;;;;17.23;16.03;;;18.30;21.10;;;;;;5013470;28;20582;-68
2022/05/05 11:42:13;;;;;;;18.13;16.90;;;18.70;20.00;;;;;;5013501;28;20679;-68
2022/05/05 11:44:41;;;;;;;17.93;16.63;;;17.90;19.50;;;;;;5013574;28;20410;-69
2022/05/05 11:47:16;;;;;;;18.47;17.07;;;17.40;21.70;;;;;;5013204;28;20449;-69
2022/05/05 11:49:46;;;;;;;18.17;16.77;;;17.80;22.50;;;;;;5013167;28;20461;-69
2022/05/05 11:52:21;;;;;;;17.63;16.03;;;18.30;21.90;;;;;;5013198;28;20923;-69
2022/05/05 11:54:53;;;;;;;16.10;15.00;;;17.50;20.30;;;;;;5013290;28;20518;-69
2022/05/05 11:57:38;;;;;;;14.47;13.43;;;17.80;21.30;;;;;;5013121;28;20437;-68
2022/05/05 12:02:50;;;;;;;14.83;13.50;;;17.40;20.60;;;;;;5033121;28;20421;-69
2022/05/05 12:05:18;;;;;;;17.63;16.33;;;17.50;20.70;;;;;;5033252;28;20822;-69
2022/05/05 12:07:44;;;;;;;16.33;15.23;;;17.70;21.20;;;;;;5032610;28;20199;-70
2022/05/05 12:10:12;;;;;;;15.63;14.53;;;17.70;20.90;;;;;;5032856;28;20465;-69
2022/05/05 12:12:42;;;;;;;14.93;13.80;;;17.10;22.60;;;;;;5031308;28;20414;-69
2022/05/05 12:15:10;;;;;;;16.03;14.83;;;17.40;21.30;;;;;;5032686;28;20881;-69
2022/05/05 12:17:46;;;;;;;14.80;13.60;;;17.90;21.20;;;;;;5032150;28;20946;-69
2022/05/05 12:20:14;;;;;;;14.00;12.93;;;18.60;20.50;;;;;;5032630;28;20791;-69
2022/05/05 12:22:42;;;;;;;14.47;13.47;;;18.10;19.80;;;;;;5031106;28;20421;-68
2022/05/05 12:25:15;;;;;;;15.10;14.20;;;17.80;19.40;;;;;;5032774;28;20415;-68
2022/05/05 12:28:05;;;;;;;13.90;13.00;;;17.20;20.70;;;;;;5027109;28;20814;-69
2022/05/05 12:30:40;;;;;;;16.20;14.83;;;17.30;22.10;;;;;;5009125;28;20462;-68
2022/05/05 12:33:08;;;;;;;15.90;14.40;;;17.50;22.30;;;;;;5009331;28;20417;-68
2022/05/05 12:35:36;;;;;;;13.73;12.80;;;16.90;21.70;;;;;;5020638;28;20989;-70
2022/05/05 12:38:03;;;;;;;14.90;13.57;;;17.10;23.20;;;;;;5019452;28;20454;-69
2022/05/05 12:40:29;;;;;;;16.27;15.10;;;17.80;22.30;;;;;;5008908;28;20469;-70
2022/05/05 12:43:02;;;;;;;15.87;14.70;;;17.90;20.60;;;;;;5008954;28;20762;-70
2022/05/05 12:45:31;;;;;;;15.40;14.27;;;18.10;20.30;;;;;;5008670;28;20816;-71
2022/05/05 12:47:59;;;;;;;16.40;15.00;;;18.70;19.50;;;;;;5008182;28;20822;-71
2022/05/05 12:50:32;;;;;;;16.13;15.03;;;18.90;18.90;;;;;;5008400;28;20458;-67
2022/05/05 13:01:22;;;;;;;15.00;13.70;;;18.60;20.00;;;;;;5008610;28;21246;-70
2022/05/05 13:03:48;;;;;;;16.70;15.60;;;18.80;20.10;;;;;;5026630;28;20432;-69
2022/05/05 13:06:14;;;;;;;17.10;15.60;;;18.40;19.50;;;;;;5027767;28;20414;-70
2022/05/05 13:08:40;;;;;;;15.97;14.77;;;18.50;19.90;;;;;;5027481;28;20487;-69
2022/05/05 13:11:05;;;;;;;15.93;14.83;;;18.10;19.60;;;;;;5020910;28;20186;-69
2022/05/05 13:13:31;;;;;;;14.77;13.77;;;18.40;19.70;;;;;;5007938;28;20513;-69
2022/05/05 13:15:56;;;;;;;16.53;15.23;;;18.30;18.60;;;;;;5008371;28;20187;-68
2022/05/05 13:18:22;;;;;;;13.93;12.93;;;17.40;20.80;;;;;;5007979;28;20226;-69
2022/05/05 13:20:47;;;;;;;16.00;14.70;;;17.50;22.00;;;;;;5007729;28;20195;-69
2022/05/05 13:23:13;;;;;;;17.10;15.70;;;17.70;22.00;;;;;;5008369;28;20561;-68
2022/05/05 13:25:38;;;;;;;16.90;15.67;;;17.20;21.40;;;;;;5008449;28;20187;-70
2022/05/05 13:28:04;;;;;;;15.30;14.30;;;17.70;20.70;;;;;;5006299;28;20200;-69
2022/05/05 13:30:30;;;;;;;14.63;13.73;;;18.10;19.60;;;;;;5007495;28;20212;-68
2022/05/05 13:32:56;;;;;;;16.17;15.17;;;17.90;19.50;;;;;;5007920;28;20241;-70